Airfield :
LOGIN :

Register | Disclaimer

   EN    FR    IT 

 










Legend :    VFR   Marginal VFR   IFR   Intensive IFR   Very Intensive IFR
Visi :
Ceiling :
>= 8 km
>= 3000ft
5 to 8 km
1000 to 3000 ft
1500m to 5 km
500 to 1000 ft
800 to 1500m
200 to 500 ft
< 800m
< 200 ft
Symbols :   Thunderstorms  Fog  Heavy snow  Heavy precipitations  Wind > 20 kt
SIGMETs :     Misc.  Thunderstorms  Icing  Turbulence  Mountain Waves  Volcanic Ashes






- Airport Elevation : 82 ft
- IATA code : ALG


DAAG - Alger Houari Boumedienne

CURRENT METAR :
  • 161830Z 08005KT 6000 NSC 13/12 Q1028

EXPIRED METARs :
  • 161800Z 09006KT 050V120 6000 NSC 14/12 Q1028
  • 161730Z 08008KT 060V120 7000 NSC 15/13 Q1028
  • 161700Z 06007KT 360V100 7000 NSC 15/13 Q1028
  • 161630Z 04006KT 350V070 7000 NSC 16/13 Q1028
  • 161600Z 03006KT 350V050 7000 NSC 17/13 Q1028

TAF TAF DAAG
Valid from the 16 at 18:00 until the 17 at 18:00 UTC


161700Z 1618/1718 VRB02KT 7000 NSC
TEMPO 1620/1708 3000 BR BKN015
PROB40 1622/1706 0500 FG BKN008



MET'MAP, your aeronautical weather chart ! - Copyright ORBIFLY December 2007 - Disclaimer

ORBIFLY MET'MAP TEAM :

Programming & Development : Alexandra Zaïnal
Concept & original design : Baudouin d'Aumeries
Assistance for programming : Marc-Olivier Méhu
Technical & hardware support : Manuel Goepfert

Contact : metmap@orbifly.com




SOURCES & CREDITS :

   NOAA